GF754 OBBI-OPKC
Flight info
| Callsign | GF754 |
|---|---|
| Flight time | N/A |
| Altitude | 39000 |
| Route | BHR075/12L DCT BHR N697 SODAK P559 NALPO/N0446F350 P559 PUSOT Q322 LOVEM M677 LALDO/N0449F390 A791 KC DCT |
| Aircraft | A20N/M-SDE2E3FGHIRWXY/LB1 |
Departure
| Time | 2026-04-27 18:29 |
|---|---|
| Airport | Bahrain International Airport (OBBI) |
Arrival
| Time | N/A |
|---|---|
| Airport | Jinnah International Airport (OPKC) |
| Time | Latitude | Longitude | Altitude | Speed | Heading |
|---|---|---|---|---|---|
| 2026-04-27 17:08 | 26.26408 | 50.63764 | 17 ft | 0 kts | 211° |
| 2026-04-27 18:05 | 26.26408 | 50.63765 | 16 ft | 1 kts | 211° |
| 2026-04-27 18:05 | 26.26422 | 50.63774 | 16 ft | 2 kts | 211° |
| 2026-04-27 18:05 | 26.26432 | 50.63781 | 18 ft | 2 kts | 211° |
| 2026-04-27 18:05 | 26.26442 | 50.63788 | 17 ft | 2 kts | 211° |
| 2026-04-27 18:06 | 26.26452 | 50.63795 | 19 ft | 2 kts | 212° |
| 2026-04-27 18:06 | 26.26463 | 50.63802 | 18 ft | 2 kts | 213° |
| 2026-04-27 18:06 | 26.26473 | 50.63809 | 16 ft | 2 kts | 215° |
| 2026-04-27 18:06 | 26.26482 | 50.63817 | 16 ft | 2 kts | 225° |
| 2026-04-27 18:07 | 26.26490 | 50.63828 | 16 ft | 2 kts | 265° |
| 2026-04-27 18:07 | 26.26490 | 50.63835 | 16 ft | 0 kts | 298° |
| 2026-04-27 18:11 | 26.26492 | 50.63830 | 18 ft | 2 kts | 298° |
| 2026-04-27 18:12 | 26.26505 | 50.63804 | 16 ft | 6 kts | 298° |
| 2026-04-27 18:12 | 26.26531 | 50.63756 | 17 ft | 9 kts | 304° |
| 2026-04-27 18:12 | 26.26572 | 50.63691 | 16 ft | 12 kts | 303° |
| 2026-04-27 18:12 | 26.26621 | 50.63606 | 18 ft | 14 kts | 303° |
| 2026-04-27 18:13 | 26.26681 | 50.63506 | 16 ft | 17 kts | 303° |
| 2026-04-27 18:13 | 26.26745 | 50.63387 | 18 ft | 18 kts | 299° |
| 2026-04-27 18:13 | 26.26799 | 50.63277 | 16 ft | 15 kts | 297° |
| 2026-04-27 18:13 | 26.26855 | 50.63166 | 16 ft | 18 kts | 305° |
| 2026-04-27 18:14 | 26.26929 | 50.63049 | 17 ft | 19 kts | 304° |
| 2026-04-27 18:14 | 26.27008 | 50.62920 | 18 ft | 21 kts | 304° |
| 2026-04-27 18:14 | 26.27049 | 50.62848 | 18 ft | 1 kts | 302° |
| 2026-04-27 18:14 | 26.27053 | 50.62847 | 18 ft | 0 kts | 331° |
| 2026-04-27 18:15 | 26.27054 | 50.62847 | 18 ft | 0 kts | 339° |
| 2026-04-27 18:15 | 26.27056 | 50.62844 | 17 ft | 0 kts | 319° |
| 2026-04-27 18:15 | 26.27062 | 50.62835 | 17 ft | 3 kts | 311° |
| 2026-04-27 18:15 | 26.27076 | 50.62808 | 17 ft | 6 kts | 301° |
| 2026-04-27 18:16 | 26.27103 | 50.62758 | 17 ft | 9 kts | 301° |
| 2026-04-27 18:16 | 26.27142 | 50.62687 | 17 ft | 12 kts | 302° |
| 2026-04-27 18:16 | 26.27193 | 50.62598 | 19 ft | 15 kts | 303° |
| 2026-04-27 18:16 | 26.27240 | 50.62536 | 17 ft | 7 kts | 319° |
| 2026-04-27 18:17 | 26.27289 | 50.62536 | 17 ft | 9 kts | 26° |
| 2026-04-27 18:17 | 26.27336 | 50.62552 | 17 ft | 0 kts | 2° |
| 2026-04-27 18:17 | 26.27340 | 50.62550 | 18 ft | 3 kts | 345° |
| 2026-04-27 18:18 | 26.27374 | 50.62521 | 17 ft | 9 kts | 310° |
| 2026-04-27 18:18 | 26.27415 | 50.62455 | 17 ft | 12 kts | 302° |
| 2026-04-27 18:18 | 26.27465 | 50.62367 | 16 ft | 15 kts | 302° |
| 2026-04-27 18:18 | 26.27526 | 50.62260 | 18 ft | 18 kts | 302° |
| 2026-04-27 18:19 | 26.27596 | 50.62139 | 16 ft | 18 kts | 303° |
| 2026-04-27 18:19 | 26.27633 | 50.62076 | 16 ft | 1 kts | 303° |
| 2026-04-27 18:19 | 26.27643 | 50.62058 | 17 ft | 4 kts | 302° |
| 2026-04-27 18:19 | 26.27666 | 50.62019 | 19 ft | 8 kts | 303° |
| 2026-04-27 18:20 | 26.27690 | 50.61983 | 17 ft | 9 kts | 300° |
| 2026-04-27 18:20 | 26.27725 | 50.61920 | 17 ft | 11 kts | 303° |
| 2026-04-27 18:20 | 26.27770 | 50.61842 | 17 ft | 13 kts | 302° |
| 2026-04-27 18:20 | 26.27824 | 50.61747 | 19 ft | 16 kts | 302° |
| 2026-04-27 18:21 | 26.27903 | 50.61657 | 18 ft | 12 kts | 340° |
| 2026-04-27 18:21 | 26.27914 | 50.61654 | 18 ft | 0 kts | 348° |
| 2026-04-27 18:27 | 26.27915 | 50.61654 | 18 ft | 2 kts | 349° |
| 2026-04-27 18:27 | 26.27989 | 50.61672 | 19 ft | 16 kts | 28° |
| 2026-04-27 18:27 | 26.28022 | 50.61732 | 19 ft | 9 kts | 99° |
| 2026-04-27 18:27 | 26.27976 | 50.61824 | 20 ft | 17 kts | 123° |
| 2026-04-27 18:28 | 26.27950 | 50.61870 | 18 ft | 0 kts | 122° |
| 2026-04-27 18:28 | 26.27896 | 50.61964 | 19 ft | 50 kts | 123° |
| 2026-04-27 18:28 | 26.27549 | 50.62559 | 20 ft | 129 kts | 123° |
| 2026-04-27 18:29 | 26.27010 | 50.63539 | 365 ft | 158 kts | 120° |
| 2026-04-27 18:29 | 26.26460 | 50.64687 | 867 ft | 184 kts | 120° |
| 2026-04-27 18:29 | 26.25810 | 50.65950 | 1606 ft | 189 kts | 126° |
| 2026-04-27 18:29 | 26.25106 | 50.67229 | 2228 ft | 198 kts | 122° |
| 2026-04-27 18:30 | 26.24317 | 50.68532 | 2817 ft | 209 kts | 146° |
| 2026-04-27 18:30 | 26.22982 | 50.69101 | 3624 ft | 213 kts | 181° |
| 2026-04-27 18:30 | 26.21428 | 50.68894 | 4171 ft | 240 kts | 199° |
| 2026-04-27 18:30 | 26.19782 | 50.68166 | 4664 ft | 269 kts | 211° |
| 2026-04-27 18:31 | 26.18072 | 50.67251 | 4906 ft | 272 kts | 199° |
| 2026-04-27 18:31 | 26.16197 | 50.67117 | 4995 ft | 274 kts | 174° |
| 2026-04-27 18:31 | 26.14397 | 50.67883 | 4944 ft | 283 kts | 151° |
| 2026-04-27 18:31 | 26.12802 | 50.68731 | 6042 ft | 246 kts | 165° |
| 2026-04-27 18:32 | 26.11131 | 50.68944 | 6808 ft | 235 kts | 197° |
| 2026-04-27 18:32 | 26.09566 | 50.68292 | 7228 ft | 256 kts | 210° |
| 2026-04-27 18:32 | 26.07900 | 50.67326 | 7067 ft | 279 kts | 204° |
| 2026-04-27 18:32 | 26.05990 | 50.66987 | 6997 ft | 281 kts | 178° |
| 2026-04-27 18:33 | 26.04113 | 50.67635 | 7209 ft | 291 kts | 152° |
| 2026-04-27 18:33 | 26.02597 | 50.69148 | 7470 ft | 298 kts | 127° |
| 2026-04-27 18:33 | 26.01757 | 50.71256 | 7737 ft | 302 kts | 102° |
| 2026-04-27 18:33 | 26.01750 | 50.73586 | 8007 ft | 304 kts | 80° |
| 2026-04-27 18:34 | 26.02141 | 50.75902 | 8278 ft | 305 kts | 79° |
| 2026-04-27 18:34 | 26.02545 | 50.78223 | 8550 ft | 306 kts | 79° |
| 2026-04-27 18:34 | 26.02949 | 50.80555 | 8889 ft | 308 kts | 79° |
| 2026-04-27 18:34 | 26.03352 | 50.82896 | 9240 ft | 309 kts | 79° |
| 2026-04-27 18:35 | 26.03754 | 50.85250 | 9593 ft | 310 kts | 79° |
| 2026-04-27 18:35 | 26.04152 | 50.87589 | 9915 ft | 312 kts | 79° |
| 2026-04-27 18:35 | 26.04556 | 50.89981 | 10247 ft | 323 kts | 79° |
| 2026-04-27 18:35 | 26.04980 | 50.92515 | 10583 ft | 342 kts | 79° |
| 2026-04-27 18:36 | 26.05424 | 50.95182 | 10932 ft | 360 kts | 79° |
| 2026-04-27 18:36 | 26.05882 | 50.97953 | 11259 ft | 366 kts | 79° |
| 2026-04-27 18:36 | 26.06341 | 51.00747 | 11602 ft | 369 kts | 79° |
| 2026-04-27 18:36 | 26.06799 | 51.03564 | 11942 ft | 370 kts | 79° |
| 2026-04-27 18:37 | 26.07254 | 51.06393 | 12285 ft | 372 kts | 79° |
| 2026-04-27 18:37 | 26.07691 | 51.09143 | 12618 ft | 348 kts | 79° |
| 2026-04-27 18:37 | 26.08086 | 51.11680 | 12947 ft | 323 kts | 79° |
| 2026-04-27 18:37 | 26.08727 | 51.14100 | 13308 ft | 328 kts | 59° |
| 2026-04-27 18:38 | 26.09947 | 51.16236 | 13673 ft | 327 kts | 53° |
| 2026-04-27 18:38 | 26.11234 | 51.18343 | 13988 ft | 329 kts | 53° |
| 2026-04-27 18:38 | 26.12528 | 51.20457 | 14311 ft | 332 kts | 53° |
| 2026-04-27 18:38 | 26.13819 | 51.22561 | 14650 ft | 334 kts | 53° |
| 2026-04-27 18:39 | 26.15137 | 51.24702 | 14910 ft | 338 kts | 53° |
| 2026-04-27 18:39 | 26.16471 | 51.26867 | 14998 ft | 338 kts | 53° |
| 2026-04-27 18:39 | 26.17800 | 51.29021 | 15012 ft | 338 kts | 53° |
| 2026-04-27 18:39 | 26.19129 | 51.31174 | 15016 ft | 337 kts | 53° |
| 2026-04-27 18:40 | 26.20458 | 51.33330 | 15016 ft | 337 kts | 53° |
| 2026-04-27 18:40 | 26.21786 | 51.35487 | 15015 ft | 337 kts | 53° |